sensor_id;sensor_type;location;lat;lon;timestamp;pressure;altitude;pressure_sealevel;temperature;humidity
29215;BME280;16252;49.816;7.964;2023-03-25T00:02:05;99155.84;;;11.84;54.37
29215;BME280;16252;49.816;7.964;2023-03-25T00:04:30;99147.53;;;11.77;54.24
29215;BME280;16252;49.816;7.964;2023-03-25T00:06:56;99144.31;;;11.74;54.34
29215;BME280;16252;49.816;7.964;2023-03-25T00:09:22;99144.75;;;11.69;54.47
29215;BME280;16252;49.816;7.964;2023-03-25T00:11:50;99148.97;;;11.71;54.41
29215;BME280;16252;49.816;7.964;2023-03-25T00:14:15;99146.28;;;11.62;54.54
29215;BME280;16252;49.816;7.964;2023-03-25T00:16:44;99153.19;;;11.64;54.74
29215;BME280;16252;49.816;7.964;2023-03-25T00:19:13;99172.25;;;11.71;54.66
29215;BME280;16252;49.816;7.964;2023-03-25T00:21:40;99154.19;;;11.63;54.83
29215;BME280;16252;49.816;7.964;2023-03-25T00:24:09;99149.84;;;11.62;54.86
29215;BME280;16252;49.816;7.964;2023-03-25T00:26:34;99170.56;;;11.70;54.85
29215;BME280;16252;49.816;7.964;2023-03-25T00:28:59;99155.88;;;11.64;54.82
29215;BME280;16252;49.816;7.964;2023-03-25T00:31:24;99150.41;;;11.56;54.72
29215;BME280;16252;49.816;7.964;2023-03-25T00:33:50;99125.19;;;11.39;55.03
29215;BME280;16252;49.816;7.964;2023-03-25T00:36:15;99164.63;;;11.66;55.01
29215;BME280;16252;49.816;7.964;2023-03-25T00:38:42;99145.75;;;11.58;55.07
29215;BME280;16252;49.816;7.964;2023-03-25T00:41:18;99159.53;;;11.73;54.82
29215;BME280;16252;49.816;7.964;2023-03-25T00:43:50;99147.16;;;11.62;55.24
29215;BME280;16252;49.816;7.964;2023-03-25T00:46:16;99155.03;;;11.64;55.29
29215;BME280;16252;49.816;7.964;2023-03-25T00:48:42;99145.16;;;11.64;55.15
29215;BME280;16252;49.816;7.964;2023-03-25T00:51:08;99160.97;;;11.67;55.52
29215;BME280;16252;49.816;7.964;2023-03-25T00:53:35;99154.75;;;11.67;55.47
29215;BME280;16252;49.816;7.964;2023-03-25T00:56:02;99119.81;;;11.49;55.51
29215;BME280;16252;49.816;7.964;2023-03-25T00:58:28;99151.22;;;11.66;55.73
29215;BME280;16252;49.816;7.964;2023-03-25T01:00:53;99161.81;;;11.68;55.74
29215;BME280;16252;49.816;7.964;2023-03-25T01:03:21;99153.38;;;11.63;55.87
29215;BME280;16252;49.816;7.964;2023-03-25T01:05:48;99135.88;;;11.59;55.79
29215;BME280;16252;49.816;7.964;2023-03-25T01:08:13;99149.38;;;11.67;55.75
29215;BME280;16252;49.816;7.964;2023-03-25T01:10:39;99148.13;;;11.61;55.84
29215;BME280;16252;49.816;7.964;2023-03-25T01:13:04;99158.41;;;11.76;55.76
29215;BME280;16252;49.816;7.964;2023-03-25T01:15:29;99147.28;;;11.70;55.91
29215;BME280;16252;49.816;7.964;2023-03-25T01:17:54;99143.47;;;11.73;55.63
29215;BME280;16252;49.816;7.964;2023-03-25T01:20:20;99132.59;;;11.75;55.94
29215;BME280;16252;49.816;7.964;2023-03-25T01:22:45;99147.41;;;11.88;55.63
29215;BME280;16252;49.816;7.964;2023-03-25T01:25:10;99128.78;;;11.77;55.41
29215;BME280;16252;49.816;7.964;2023-03-25T01:27:36;99146.97;;;11.93;55.39
29215;BME280;16252;49.816;7.964;2023-03-25T01:30:01;99093.13;;;11.67;55.71
29215;BME280;16252;49.816;7.964;2023-03-25T01:32:27;99141.44;;;11.95;55.55
29215;BME280;16252;49.816;7.964;2023-03-25T01:34:53;99131.44;;;11.87;55.80
29215;BME280;16252;49.816;7.964;2023-03-25T01:37:18;99128.91;;;11.85;55.84
29215;BME280;16252;49.816;7.964;2023-03-25T01:39:43;99128.78;;;11.87;55.82
29215;BME280;16252;49.816;7.964;2023-03-25T01:42:09;99137.50;;;11.89;55.92
29215;BME280;16252;49.816;7.964;2023-03-25T01:47:05;99113.81;;;11.75;55.99
29215;BME280;16252;49.816;7.964;2023-03-25T01:49:35;99143.59;;;11.91;56.29
29215;BME280;16252;49.816;7.964;2023-03-25T01:52:04;99123.69;;;11.84;55.96
29215;BME280;16252;49.816;7.964;2023-03-25T01:54:31;99118.44;;;11.82;56.14
29215;BME280;16252;49.816;7.964;2023-03-25T01:56:57;99121.13;;;11.82;56.01
29215;BME280;16252;49.816;7.964;2023-03-25T01:59:25;99100.03;;;11.69;55.78
29215;BME280;16252;49.816;7.964;2023-03-25T02:01:53;99108.88;;;11.80;55.70
29215;BME280;16252;49.816;7.964;2023-03-25T02:04:48;99103.69;;;11.88;55.30
29215;BME280;16252;49.816;7.964;2023-03-25T02:07:26;99056.66;;;11.56;55.38
29215;BME280;16252;49.816;7.964;2023-03-25T02:09:55;99073.94;;;11.71;55.41
29215;BME280;16252;49.816;7.964;2023-03-25T02:12:21;99067.19;;;11.67;55.45
29215;BME280;16252;49.816;7.964;2023-03-25T02:14:46;99069.28;;;11.74;55.08
29215;BME280;16252;49.816;7.964;2023-03-25T02:25:44;99092.38;;;11.75;55.34
29215;BME280;16252;49.816;7.964;2023-03-25T02:28:36;99081.09;;;11.81;54.68
29215;BME280;16252;49.816;7.964;2023-03-25T02:34:23;99072.78;;;11.74;54.98
29215;BME280;16252;49.816;7.964;2023-03-25T02:39:48;99085.78;;;11.69;55.35
29215;BME280;16252;49.816;7.964;2023-03-25T02:45:00;99052.84;;;11.49;55.48
29215;BME280;16252;49.816;7.964;2023-03-25T02:47:32;99035.66;;;11.52;55.11
29215;BME280;16252;49.816;7.964;2023-03-25T02:50:03;99045.41;;;11.43;55.46
29215;BME280;16252;49.816;7.964;2023-03-25T02:52:38;99054.41;;;11.52;55.08
29215;BME280;16252;49.816;7.964;2023-03-25T02:55:07;99050.78;;;11.43;55.62
29215;BME280;16252;49.816;7.964;2023-03-25T02:57:38;99039.53;;;11.30;55.70
29215;BME280;16252;49.816;7.964;2023-03-25T03:00:08;99029.81;;;11.28;55.20
29215;BME280;16252;49.816;7.964;2023-03-25T03:02:47;99052.78;;;11.31;55.53
29215;BME280;16252;49.816;7.964;2023-03-25T03:05:38;99025.88;;;11.23;55.04
29215;BME280;16252;49.816;7.964;2023-03-25T03:13:48;99045.47;;;11.23;55.87
29215;BME280;16252;49.816;7.964;2023-03-25T03:19:09;99043.78;;;11.22;55.73
29215;BME280;16252;49.816;7.964;2023-03-25T03:21:56;99043.22;;;11.19;55.56
29215;BME280;16252;49.816;7.964;2023-03-25T03:24:31;99043.38;;;11.07;56.16
29215;BME280;16252;49.816;7.964;2023-03-25T03:27:07;99025.78;;;11.05;55.74
29215;BME280;16252;49.816;7.964;2023-03-25T03:29:45;99042.97;;;11.12;55.91
29215;BME280;16252;49.816;7.964;2023-03-25T03:32:17;99044.66;;;11.03;55.69
29215;BME280;16252;49.816;7.964;2023-03-25T03:35:02;99017.34;;;10.90;55.87
29215;BME280;16252;49.816;7.964;2023-03-25T03:37:37;99041.72;;;10.97;55.86
29215;BME280;16252;49.816;7.964;2023-03-25T03:40:08;99053.41;;;10.96;55.95
29215;BME280;16252;49.816;7.964;2023-03-25T03:42:39;99047.06;;;10.97;56.03
29215;BME280;16252;49.816;7.964;2023-03-25T03:45:12;99054.25;;;10.96;55.96
29215;BME280;16252;49.816;7.964;2023-03-25T03:47:44;99055.94;;;10.88;56.26
29215;BME280;16252;49.816;7.964;2023-03-25T03:50:35;99075.50;;;10.98;55.71
29215;BME280;16252;49.816;7.964;2023-03-25T03:53:10;99078.06;;;10.90;56.05
29215;BME280;16252;49.816;7.964;2023-03-25T03:55:45;99069.63;;;10.75;55.93
29215;BME280;16252;49.816;7.964;2023-03-25T03:58:19;99101.56;;;10.96;55.93
29215;BME280;16252;49.816;7.964;2023-03-25T04:00:50;99084.13;;;10.82;56.23
29215;BME280;16252;49.816;7.964;2023-03-25T04:03:22;99079.75;;;10.71;56.10
29215;BME280;16252;49.816;7.964;2023-03-25T04:05:54;99131.31;;;11.02;56.13
29215;BME280;16252;49.816;7.964;2023-03-25T04:08:28;99123.28;;;11.02;56.13
29215;BME280;16252;49.816;7.964;2023-03-25T04:10:58;99123.97;;;10.95;56.21
29215;BME280;16252;49.816;7.964;2023-03-25T04:13:32;99129.03;;;10.98;56.11
29215;BME280;16252;49.816;7.964;2023-03-25T04:15:59;99122.13;;;10.85;56.03
29215;BME280;16252;49.816;7.964;2023-03-25T04:18:25;99130.16;;;10.85;56.02
29215;BME280;16252;49.816;7.964;2023-03-25T04:20:53;99131.44;;;10.91;56.05
29215;BME280;16252;49.816;7.964;2023-03-25T04:23:18;99136.34;;;10.86;56.14
29215;BME280;16252;49.816;7.964;2023-03-25T04:25:45;99157.06;;;10.94;56.17
29215;BME280;16252;49.816;7.964;2023-03-25T04:28:19;99149.59;;;10.88;56.20
29215;BME280;16252;49.816;7.964;2023-03-25T04:30:45;99150.16;;;10.91;56.52
29215;BME280;16252;49.816;7.964;2023-03-25T04:33:11;99155.81;;;10.88;56.67
29215;BME280;16252;49.816;7.964;2023-03-25T04:35:37;99155.50;;;10.91;56.68
29215;BME280;16252;49.816;7.964;2023-03-25T04:38:03;99150.03;;;10.93;56.64
29215;BME280;16252;49.816;7.964;2023-03-25T04:40:29;99154.97;;;10.97;56.88
29215;BME280;16252;49.816;7.964;2023-03-25T04:42:55;99149.75;;;10.96;56.80
29215;BME280;16252;49.816;7.964;2023-03-25T04:45:21;99161.88;;;11.10;56.82
29215;BME280;16252;49.816;7.964;2023-03-25T04:47:47;99159.19;;;11.10;56.93
29215;BME280;16252;49.816;7.964;2023-03-25T04:50:18;99157.78;;;11.15;56.78
29215;BME280;16252;49.816;7.964;2023-03-25T04:52:44;99120.03;;;10.89;56.92
29215;BME280;16252;49.816;7.964;2023-03-25T04:55:11;99142.84;;;11.03;57.08
29215;BME280;16252;49.816;7.964;2023-03-25T04:57:41;99112.44;;;10.84;56.90
29215;BME280;16252;49.816;7.964;2023-03-25T05:00:07;99135.66;;;10.94;56.78
29215;BME280;16252;49.816;7.964;2023-03-25T05:02:33;99136.94;;;10.90;57.20
29215;BME280;16252;49.816;7.964;2023-03-25T05:04:58;99155.53;;;11.01;57.15
29215;BME280;16252;49.816;7.964;2023-03-25T05:07:26;99088.31;;;10.55;57.22
29215;BME280;16252;49.816;7.964;2023-03-25T05:09:54;99159.31;;;10.98;57.53
29215;BME280;16252;49.816;7.964;2023-03-25T05:12:21;99157.66;;;10.97;57.59
29215;BME280;16252;49.816;7.964;2023-03-25T05:14:46;99169.50;;;11.04;57.70
29215;BME280;16252;49.816;7.964;2023-03-25T05:17:11;99158.06;;;10.93;57.65
29215;BME280;16252;49.816;7.964;2023-03-25T05:19:37;99157.22;;;10.92;57.68
29215;BME280;16252;49.816;7.964;2023-03-25T05:22:02;99170.03;;;10.98;57.90
29215;BME280;16252;49.816;7.964;2023-03-25T05:24:28;99167.50;;;10.97;57.95
29215;BME280;16252;49.816;7.964;2023-03-25T05:26:54;99175.13;;;11.01;58.21
29215;BME280;16252;49.816;7.964;2023-03-25T05:29:19;99187.38;;;11.04;58.23
29215;BME280;16252;49.816;7.964;2023-03-25T05:31:45;99184.84;;;11.02;58.58
29215;BME280;16252;49.816;7.964;2023-03-25T05:34:11;99187.81;;;10.99;58.40
29215;BME280;16252;49.816;7.964;2023-03-25T05:36:38;99196.13;;;10.96;58.54
29215;BME280;16252;49.816;7.964;2023-03-25T05:39:03;99195.13;;;10.97;58.12
29215;BME280;16252;49.816;7.964;2023-03-25T05:41:29;99195.41;;;10.94;58.21
29215;BME280;16252;49.816;7.964;2023-03-25T05:44:06;99186.66;;;10.82;58.44
29215;BME280;16252;49.816;7.964;2023-03-25T05:46:31;99187.34;;;10.84;58.52
29215;BME280;16252;49.816;7.964;2023-03-25T05:48:57;99209.50;;;10.96;58.45
29215;BME280;16252;49.816;7.964;2023-03-25T05:51:25;99217.66;;;10.95;58.61
29215;BME280;16252;49.816;7.964;2023-03-25T05:53:50;99201.56;;;10.85;58.46
29215;BME280;16252;49.816;7.964;2023-03-25T05:56:17;99201.28;;;10.78;58.64
29215;BME280;16252;49.816;7.964;2023-03-25T05:58:43;99214.13;;;10.84;58.33
29215;BME280;16252;49.816;7.964;2023-03-25T06:01:10;99216.22;;;10.91;58.06
29215;BME280;16252;49.816;7.964;2023-03-25T06:03:39;99198.88;;;10.75;58.20
29215;BME280;16252;49.816;7.964;2023-03-25T06:06:07;99185.22;;;10.69;58.17
29215;BME280;16252;49.816;7.964;2023-03-25T06:08:39;99184.63;;;10.65;57.78
29215;BME280;16252;49.816;7.964;2023-03-25T06:11:06;99219.59;;;10.83;57.72
29215;BME280;16252;49.816;7.964;2023-03-25T06:13:31;99176.47;;;10.57;58.08
29215;BME280;16252;49.816;7.964;2023-03-25T06:15:58;99206.34;;;10.72;57.83
29215;BME280;16252;49.816;7.964;2023-03-25T06:18:24;99210.84;;;10.71;57.88
29215;BME280;16252;49.816;7.964;2023-03-25T06:20:51;99209.16;;;10.70;58.09
29215;BME280;16252;49.816;7.964;2023-03-25T06:23:18;99232.41;;;10.79;57.92
29215;BME280;16252;49.816;7.964;2023-03-25T06:25:43;99211.28;;;10.76;57.88
29215;BME280;16252;49.816;7.964;2023-03-25T06:28:09;99184.63;;;10.65;57.98
29215;BME280;16252;49.816;7.964;2023-03-25T06:30:35;99188.47;;;10.72;58.00
29215;BME280;16252;49.816;7.964;2023-03-25T06:33:00;99200.16;;;10.81;57.89
29215;BME280;16252;49.816;7.964;2023-03-25T06:35:27;99216.66;;;10.96;58.02
29215;BME280;16252;49.816;7.964;2023-03-25T06:37:52;99185.53;;;10.85;57.96
29215;BME280;16252;49.816;7.964;2023-03-25T06:40:18;99193.69;;;10.93;57.88
29215;BME280;16252;49.816;7.964;2023-03-25T06:42:44;99184.69;;;10.94;57.61
29215;BME280;16252;49.816;7.964;2023-03-25T06:45:10;99188.94;;;11.06;57.45
29215;BME280;16252;49.816;7.964;2023-03-25T06:47:36;99179.19;;;11.05;57.43
29215;BME280;16252;49.816;7.964;2023-03-25T06:50:02;99179.59;;;11.01;57.38
29215;BME280;16252;49.816;7.964;2023-03-25T06:52:27;99172.88;;;10.97;57.27
29215;BME280;16252;49.816;7.964;2023-03-25T06:54:52;99176.69;;;11.04;57.61
29215;BME280;16252;49.816;7.964;2023-03-25T06:57:18;99184.56;;;11.15;57.47
29215;BME280;16252;49.816;7.964;2023-03-25T06:59:43;99152.59;;;11.04;57.53
29215;BME280;16252;49.816;7.964;2023-03-25T07:02:11;99177.38;;;11.25;57.74
29215;BME280;16252;49.816;7.964;2023-03-25T07:04:37;99170.88;;;11.28;57.59
29215;BME280;16252;49.816;7.964;2023-03-25T07:07:02;99176.25;;;11.38;57.48
29215;BME280;16252;49.816;7.964;2023-03-25T07:09:27;99165.94;;;11.33;57.37
29215;BME280;16252;49.816;7.964;2023-03-25T07:11:53;99159.75;;;11.42;57.52
29215;BME280;16252;49.816;7.964;2023-03-25T07:14:18;99150.59;;;11.45;57.41
29215;BME280;16252;49.816;7.964;2023-03-25T07:16:43;99170.56;;;11.60;57.17
29215;BME280;16252;49.816;7.964;2023-03-25T07:19:08;99175.91;;;11.70;57.20
29215;BME280;16252;49.816;7.964;2023-03-25T07:21:34;99168.31;;;11.65;56.90
29215;BME280;16252;49.816;7.964;2023-03-25T07:23:59;99157.59;;;11.65;56.68
29215;BME280;16252;49.816;7.964;2023-03-25T07:26:24;99176.88;;;11.79;56.64
29215;BME280;16252;49.816;7.964;2023-03-25T07:28:50;99153.06;;;11.66;56.57
29215;BME280;16252;49.816;7.964;2023-03-25T07:31:15;99169.38;;;11.82;56.57
29215;BME280;16252;49.816;7.964;2023-03-25T07:33:40;99173.50;;;11.86;56.58
29215;BME280;16252;49.816;7.964;2023-03-25T07:36:07;99177.84;;;11.97;56.34
29215;BME280;16252;49.816;7.964;2023-03-25T07:38:33;99183.59;;;12.02;56.55
29215;BME280;16252;49.816;7.964;2023-03-25T07:40:59;99164.00;;;12.02;56.50
29215;BME280;16252;49.816;7.964;2023-03-25T07:43:24;99163.97;;;12.11;56.49
29215;BME280;16252;49.816;7.964;2023-03-25T07:45:49;99188.03;;;12.31;56.26
29215;BME280;16252;49.816;7.964;2023-03-25T07:48:15;99165.31;;;12.25;55.90
29215;BME280;16252;49.816;7.964;2023-03-25T07:50:41;99154.22;;;12.38;55.87
29215;BME280;16252;49.816;7.964;2023-03-25T07:53:07;99173.25;;;12.45;55.89
29215;BME280;16252;49.816;7.964;2023-03-25T07:55:33;99171.81;;;12.50;55.56
29215;BME280;16252;49.816;7.964;2023-03-25T07:57:58;99166.84;;;12.55;55.51
29215;BME280;16252;49.816;7.964;2023-03-25T08:00:26;99160.28;;;12.68;55.28
29215;BME280;16252;49.816;7.964;2023-03-25T08:02:52;99185.91;;;12.80;55.01
29215;BME280;16252;49.816;7.964;2023-03-25T08:05:17;99192.38;;;12.87;55.02
29215;BME280;16252;49.816;7.964;2023-03-25T08:07:47;99187.09;;;12.95;54.83
29215;BME280;16252;49.816;7.964;2023-03-25T08:10:12;99173.34;;;12.98;54.73
29215;BME280;16252;49.816;7.964;2023-03-25T08:12:39;99175.81;;;12.92;54.60
29215;BME280;16252;49.816;7.964;2023-03-25T08:15:06;99204.53;;;13.09;54.37
29215;BME280;16252;49.816;7.964;2023-03-25T08:17:31;99184.19;;;13.07;54.53
29215;BME280;16252;49.816;7.964;2023-03-25T08:19:57;99159.38;;;13.13;54.40
29215;BME280;16252;49.816;7.964;2023-03-25T08:22:22;99190.59;;;13.14;54.47
29215;BME280;16252;49.816;7.964;2023-03-25T08:24:48;99180.22;;;13.29;54.32
29215;BME280;16252;49.816;7.964;2023-03-25T08:27:13;99184.59;;;13.48;54.09
29215;BME280;16252;49.816;7.964;2023-03-25T08:29:38;99180.03;;;13.48;54.03
29215;BME280;16252;49.816;7.964;2023-03-25T08:32:04;99169.28;;;13.48;53.96
29215;BME280;16252;49.816;7.964;2023-03-25T08:34:29;99181.50;;;13.60;53.77
29215;BME280;16252;49.816;7.964;2023-03-25T08:36:58;99156.69;;;13.49;53.77
29215;BME280;16252;49.816;7.964;2023-03-25T08:39:23;99186.09;;;13.68;53.79
29215;BME280;16252;49.816;7.964;2023-03-25T08:41:53;99188.06;;;13.92;54.27
29215;BME280;16252;49.816;7.964;2023-03-25T08:44:19;99176.91;;;13.79;54.46
29215;BME280;16252;49.816;7.964;2023-03-25T08:46:45;99170.22;;;13.83;55.08
29215;BME280;16252;49.816;7.964;2023-03-25T08:49:10;99186.44;;;13.99;55.24
29215;BME280;16252;49.816;7.964;2023-03-25T08:51:35;99160.34;;;13.92;54.72
29215;BME280;16252;49.816;7.964;2023-03-25T08:54:01;99164.25;;;13.97;54.32
29215;BME280;16252;49.816;7.964;2023-03-25T08:56:27;99185.13;;;14.03;53.89
29215;BME280;16252;49.816;7.964;2023-03-25T08:58:52;99117.41;;;13.74;53.51
29215;BME280;16252;49.816;7.964;2023-03-25T09:01:18;99154.94;;;13.83;53.55
29215;BME280;16252;49.816;7.964;2023-03-25T09:03:45;99160.69;;;13.88;53.29
29215;BME280;16252;49.816;7.964;2023-03-25T09:06:11;99173.28;;;13.88;53.95
29215;BME280;16252;49.816;7.964;2023-03-25T09:08:36;99154.56;;;13.78;54.48
29215;BME280;16252;49.816;7.964;2023-03-25T09:11:02;99172.38;;;13.79;54.49
29215;BME280;16252;49.816;7.964;2023-03-25T09:13:28;99172.53;;;13.78;54.58
29215;BME280;16252;49.816;7.964;2023-03-25T09:15:53;99169.69;;;13.79;54.05
29215;BME280;16252;49.816;7.964;2023-03-25T09:18:18;99154.81;;;13.67;54.40
29215;BME280;16252;49.816;7.964;2023-03-25T09:20:43;99160.03;;;13.69;54.36
29215;BME280;16252;49.816;7.964;2023-03-25T09:23:13;99167.59;;;13.91;54.36
29215;BME280;16252;49.816;7.964;2023-03-25T09:25:38;99155.28;;;13.88;54.13
29215;BME280;16252;49.816;7.964;2023-03-25T09:28:04;99183.81;;;14.07;54.12
29215;BME280;16252;49.816;7.964;2023-03-25T09:30:29;99166.34;;;14.12;53.81
29215;BME280;16252;49.816;7.964;2023-03-25T09:32:55;99144.00;;;14.11;53.86
29215;BME280;16252;49.816;7.964;2023-03-25T09:35:20;99155.72;;;14.36;54.19
29215;BME280;16252;49.816;7.964;2023-03-25T09:37:45;99147.38;;;14.56;54.97
29215;BME280;16252;49.816;7.964;2023-03-25T09:40:15;99150.53;;;15.18;55.21
29215;BME280;16252;49.816;7.964;2023-03-25T09:42:59;99082.66;;;15.47;55.40
29215;BME280;16252;49.816;7.964;2023-03-25T09:45:38;99183.56;;;16.50;52.80
29215;BME280;16252;49.816;7.964;2023-03-25T09:51:05;99176.94;;;17.00;50.04
29215;BME280;16252;49.816;7.964;2023-03-25T09:53:36;99172.06;;;17.18;50.04
29215;BME280;16252;49.816;7.964;2023-03-25T09:56:06;99177.53;;;17.10;48.87
29215;BME280;16252;49.816;7.964;2023-03-25T09:58:48;99216.44;;;17.01;49.54
29215;BME280;16252;49.816;7.964;2023-03-25T10:06:29;99216.47;;;16.45;50.94
29215;BME280;16252;49.816;7.964;2023-03-25T10:12:01;99236.34;;;16.60;50.43
29215;BME280;16252;49.816;7.964;2023-03-25T10:17:52;99220.59;;;16.24;50.73
29215;BME280;16252;49.816;7.964;2023-03-25T10:25:58;99223.03;;;16.59;53.66
29215;BME280;16252;49.816;7.964;2023-03-25T10:28:38;99231.28;;;17.05;52.45
29215;BME280;16252;49.816;7.964;2023-03-25T10:31:12;99235.09;;;17.42;51.46
29215;BME280;16252;49.816;7.964;2023-03-25T10:33:43;99230.25;;;17.83;50.69
29215;BME280;16252;49.816;7.964;2023-03-25T10:36:16;99233.28;;;18.03;49.65
29215;BME280;16252;49.816;7.964;2023-03-25T10:38:45;99227.13;;;18.09;48.08
29215;BME280;16252;49.816;7.964;2023-03-25T10:41:29;99244.31;;;18.16;49.34
29215;BME280;16252;49.816;7.964;2023-03-25T10:43:55;99217.22;;;17.79;48.14
29215;BME280;16252;49.816;7.964;2023-03-25T10:46:30;99225.06;;;17.73;48.04
29215;BME280;16252;49.816;7.964;2023-03-25T10:48:58;99239.31;;;17.67;48.01
29215;BME280;16252;49.816;7.964;2023-03-25T10:51:32;99246.78;;;17.65;48.73
29215;BME280;16252;49.816;7.964;2023-03-25T10:53:59;99240.25;;;17.51;48.33
29215;BME280;16252;49.816;7.964;2023-03-25T10:56:28;99244.00;;;17.50;47.76
29215;BME280;16252;49.816;7.964;2023-03-25T10:58:56;99244.22;;;17.41;47.68
29215;BME280;16252;49.816;7.964;2023-03-25T11:01:36;99218.69;;;17.20;47.68
29215;BME280;16252;49.816;7.964;2023-03-25T11:04:08;99240.63;;;17.25;47.19
29215;BME280;16252;49.816;7.964;2023-03-25T11:06:37;99218.47;;;16.99;47.44
29215;BME280;16252;49.816;7.964;2023-03-25T11:11:32;99232.22;;;16.81;48.07
29215;BME280;16252;49.816;7.964;2023-03-25T11:13:59;99243.41;;;16.78;48.28
29215;BME280;16252;49.816;7.964;2023-03-25T11:16:25;99255.03;;;16.78;47.95
29215;BME280;16252;49.816;7.964;2023-03-25T11:18:55;99236.19;;;16.62;48.09
29215;BME280;16252;49.816;7.964;2023-03-25T11:21:24;99225.94;;;16.49;48.14
29215;BME280;16252;49.816;7.964;2023-03-25T11:23:50;99244.63;;;16.51;47.92
29215;BME280;16252;49.816;7.964;2023-03-25T11:26:22;99256.31;;;16.51;47.92
29215;BME280;16252;49.816;7.964;2023-03-25T11:29:13;99254.28;;;16.45;48.19
29215;BME280;16252;49.816;7.964;2023-03-25T11:31:41;99251.31;;;16.23;47.75
29215;BME280;16252;49.816;7.964;2023-03-25T11:34:19;99248.63;;;16.23;47.96
29215;BME280;16252;49.816;7.964;2023-03-25T11:39:34;99237.66;;;16.09;47.61
29215;BME280;16252;49.816;7.964;2023-03-25T11:42:12;99221.69;;;15.91;47.94
29215;BME280;16252;49.816;7.964;2023-03-25T11:44:38;99225.91;;;15.85;48.02
29215;BME280;16252;49.816;7.964;2023-03-25T11:47:06;99247.97;;;15.89;47.96
29215;BME280;16252;49.816;7.964;2023-03-25T11:49:37;99237.34;;;15.79;47.53
29215;BME280;16252;49.816;7.964;2023-03-25T11:52:09;99239.38;;;15.77;48.19
29215;BME280;16252;49.816;7.964;2023-03-25T11:54:38;99234.63;;;15.63;49.63
29215;BME280;16252;49.816;7.964;2023-03-25T11:57:11;99247.31;;;15.70;49.38
29215;BME280;16252;49.816;7.964;2023-03-25T11:59:42;99210.34;;;15.46;49.74
29215;BME280;16252;49.816;7.964;2023-03-25T12:02:25;99222.34;;;15.60;49.67
29215;BME280;16252;49.816;7.964;2023-03-25T12:04:57;99229.56;;;15.59;48.25
29215;BME280;16252;49.816;7.964;2023-03-25T12:07:23;99213.03;;;15.46;47.76
29215;BME280;16252;49.816;7.964;2023-03-25T12:10:03;99198.56;;;15.47;47.70
29215;BME280;16252;49.816;7.964;2023-03-25T12:23:40;99278.50;;;15.73;49.56
29215;BME280;16252;49.816;7.964;2023-03-25T12:26:33;99252.16;;;15.58;49.34
29215;BME280;16252;49.816;7.964;2023-03-25T12:29:34;99245.75;;;15.51;49.36
29215;BME280;16252;49.816;7.964;2023-03-25T12:35:01;99245.72;;;15.27;49.09
29215;BME280;16252;49.816;7.964;2023-03-25T12:40:32;99222.13;;;15.21;49.04
29215;BME280;16252;49.816;7.964;2023-03-25T12:43:14;99177.09;;;14.88;49.06
29215;BME280;16252;49.816;7.964;2023-03-25T12:49:00;99235.94;;;15.26;48.57
29215;BME280;16252;49.816;7.964;2023-03-25T12:57:40;99230.59;;;15.50;48.61
29215;BME280;16252;49.816;7.964;2023-03-25T13:00:35;99216.25;;;15.58;48.12
29215;BME280;16252;49.816;7.964;2023-03-25T13:05:39;99200.22;;;15.65;47.62
29215;BME280;16252;49.816;7.964;2023-03-25T13:08:41;99179.19;;;15.60;47.57
29215;BME280;16252;49.816;7.964;2023-03-25T13:11:17;99198.59;;;15.80;47.26
29215;BME280;16252;49.816;7.964;2023-03-25T13:13:46;99189.66;;;15.79;46.94
29215;BME280;16252;49.816;7.964;2023-03-25T13:16:15;99208.34;;;15.97;47.14
29215;BME280;16252;49.816;7.964;2023-03-25T13:18:46;99208.97;;;16.08;46.78
29215;BME280;16252;49.816;7.964;2023-03-25T13:21:24;99213.88;;;16.20;46.11
29215;BME280;16252;49.816;7.964;2023-03-25T13:24:00;99194.13;;;16.28;45.73
29215;BME280;16252;49.816;7.964;2023-03-25T13:26:29;99170.69;;;16.12;45.30
29215;BME280;16252;49.816;7.964;2023-03-25T13:28:59;99169.47;;;16.31;44.94
29215;BME280;16252;49.816;7.964;2023-03-25T13:31:28;99174.47;;;16.42;44.64
29215;BME280;16252;49.816;7.964;2023-03-25T13:34:04;99189.28;;;16.55;44.77
29215;BME280;16252;49.816;7.964;2023-03-25T13:36:33;99180.66;;;16.59;43.65
29215;BME280;16252;49.816;7.964;2023-03-25T13:39:05;99193.81;;;16.62;43.69
29215;BME280;16252;49.816;7.964;2023-03-25T13:41:38;99194.28;;;16.66;43.63
29215;BME280;16252;49.816;7.964;2023-03-25T13:44:07;99192.25;;;16.68;43.81
29215;BME280;16252;49.816;7.964;2023-03-25T13:51:36;99151.16;;;16.50;43.26
29215;BME280;16252;49.816;7.964;2023-03-25T13:54:12;99176.03;;;16.68;44.14
29215;BME280;16252;49.816;7.964;2023-03-25T14:02:58;99207.66;;;16.59;43.32
29215;BME280;16252;49.816;7.964;2023-03-25T14:11:28;99202.63;;;16.48;43.25
29215;BME280;16252;49.816;7.964;2023-03-25T14:14:02;99183.13;;;16.30;42.63
29215;BME280;16252;49.816;7.964;2023-03-25T14:16:40;99165.78;;;16.24;42.81
29215;BME280;16252;49.816;7.964;2023-03-25T14:19:14;99208.38;;;16.45;43.58
29215;BME280;16252;49.816;7.964;2023-03-25T14:21:43;99217.00;;;16.49;43.32
29215;BME280;16252;49.816;7.964;2023-03-25T14:24:26;99149.28;;;16.19;43.92
29215;BME280;16252;49.816;7.964;2023-03-25T14:27:01;99166.94;;;16.30;42.73
29215;BME280;16252;49.816;7.964;2023-03-25T14:29:55;99194.03;;;16.44;43.57
29215;BME280;16252;49.816;7.964;2023-03-25T14:34:48;99138.84;;;16.08;42.96
29215;BME280;16252;49.816;7.964;2023-03-25T14:37:23;99196.75;;;16.44;43.78
29215;BME280;16252;49.816;7.964;2023-03-25T14:39:51;99198.47;;;16.37;42.36
29215;BME280;16252;49.816;7.964;2023-03-25T14:44:48;99192.38;;;16.35;41.73
29215;BME280;16252;49.816;7.964;2023-03-25T14:52:55;99211.63;;;16.32;41.76
29215;BME280;16252;49.816;7.964;2023-03-25T14:55:30;99174.91;;;16.15;42.20
29215;BME280;16252;49.816;7.964;2023-03-25T14:57:59;99211.97;;;16.29;41.75
29215;BME280;16252;49.816;7.964;2023-03-25T15:00:29;99179.63;;;16.21;41.52
29215;BME280;16252;49.816;7.964;2023-03-25T15:03:10;99199.53;;;16.28;41.97